createdAt,value
2019-02-05T00:00:55.401Z,9.70
2019-02-05T00:03:26.990Z,9.07
2019-02-05T00:05:58.766Z,11.87
2019-02-05T00:08:30.471Z,12.97
2019-02-05T00:11:02.274Z,9.87
2019-02-05T00:13:33.890Z,10.80
2019-02-05T00:16:05.922Z,9.50
2019-02-05T00:18:37.523Z,11.33
2019-02-05T00:21:09.253Z,11.10
2019-02-05T00:23:41.100Z,9.70
2019-02-05T00:26:14.566Z,10.83
2019-02-05T00:28:46.335Z,11.40
2019-02-05T00:31:21.061Z,14.30
2019-02-05T00:33:54.535Z,17.53
2019-02-05T00:36:30.263Z,15.90
2019-02-05T00:39:01.981Z,10.10
2019-02-05T00:41:35.456Z,11.40
2019-02-05T00:44:07.280Z,12.50
2019-02-05T00:46:39.279Z,10.33
2019-02-05T00:49:11.014Z,9.80
2019-02-05T00:51:42.759Z,8.27
2019-02-05T00:54:15.810Z,12.47
2019-02-05T00:56:47.582Z,11.90
2019-02-05T00:59:19.280Z,14.37
2019-02-05T01:01:51.500Z,14.60
2019-02-05T01:04:25.192Z,11.80
2019-02-05T01:06:57.025Z,12.87
2019-02-05T01:09:29.040Z,15.43
2019-02-05T01:12:00.754Z,8.57
2019-02-05T01:14:32.453Z,11.67
2019-02-05T01:17:04.161Z,13.93
2019-02-05T01:19:36.167Z,13.13
2019-02-05T01:22:08.451Z,12.33
2019-02-05T01:24:40.100Z,9.03
2019-02-05T01:27:13.093Z,11.77
2019-02-05T01:29:44.761Z,11.90
2019-02-05T01:32:19.705Z,11.33
2019-02-05T01:34:51.955Z,10.17
2019-02-05T01:37:23.671Z,10.23
2019-02-05T01:39:55.887Z,13.80
2019-02-05T01:42:28.094Z,11.80
2019-02-05T01:44:59.711Z,9.60
2019-02-05T01:47:31.339Z,11.00
2019-02-05T01:50:03.727Z,13.70
2019-02-05T01:52:35.443Z,10.40
2019-02-05T01:55:07.683Z,10.27
2019-02-05T01:57:39.701Z,11.70
2019-02-05T02:00:16.841Z,13.47
2019-02-05T02:02:48.638Z,9.67
2019-02-05T02:05:21.223Z,10.93
2019-02-05T02:07:52.933Z,10.87
2019-02-05T02:10:27.033Z,9.27
2019-02-05T02:12:58.844Z,10.47
2019-02-05T02:15:30.710Z,14.10
2019-02-05T02:18:02.425Z,11.87
2019-02-05T02:20:34.405Z,13.67
2019-02-05T02:23:06.236Z,12.20
2019-02-05T02:25:38.065Z,10.23
2019-02-05T02:28:09.686Z,9.93
2019-02-05T02:30:42.497Z,12.47
2019-02-05T02:33:15.709Z,10.40
2019-02-05T02:35:48.307Z,13.40
2019-02-05T02:38:20.028Z,9.03
2019-02-05T02:40:53.530Z,13.70
2019-02-05T02:43:25.150Z,8.70
2019-02-05T02:45:57.142Z,10.37
2019-02-05T02:48:28.747Z,9.70
2019-02-05T02:51:01.025Z,10.80
2019-02-05T02:53:32.683Z,13.20
2019-02-05T02:56:04.314Z,13.40
2019-02-05T02:58:36.186Z,11.00
2019-02-05T03:01:07.871Z,8.57
2019-02-05T03:03:39.476Z,12.87
2019-02-05T03:06:11.971Z,8.57
2019-02-05T03:08:43.638Z,13.37
2019-02-05T03:11:15.565Z,9.77
2019-02-05T03:13:47.217Z,10.03
2019-02-05T03:16:19.041Z,10.67
2019-02-05T03:18:50.624Z,10.33
2019-02-05T03:21:22.270Z,9.00
2019-02-05T03:23:54.349Z,11.77
2019-02-05T03:26:26.413Z,13.30
2019-02-05T03:28:58.055Z,12.17
2019-02-05T03:31:29.785Z,7.77
2019-02-05T03:34:01.419Z,12.13
2019-02-05T03:36:33.194Z,9.50
2019-02-05T03:39:08.153Z,10.33
2019-02-05T03:41:40.552Z,8.93
2019-02-05T03:44:12.564Z,10.47
2019-02-05T03:46:45.695Z,12.57
2019-02-05T03:49:17.493Z,13.40
2019-02-05T03:52:42.447Z,9.90
2019-02-05T03:55:45.139Z,9.43
2019-02-05T03:59:06.918Z,9.00
2019-02-05T04:02:34.456Z,9.77
2019-02-05T04:05:59.735Z,10.40
2019-02-05T04:09:10.129Z,7.13
2019-02-05T04:12:18.956Z,10.53
2019-02-05T04:15:41.028Z,9.10
2019-02-05T04:19:03.247Z,10.03
2019-02-05T04:22:45.097Z,8.60
2019-02-05T04:26:30.851Z,8.87
2019-02-05T04:29:48.172Z,6.93
2019-02-05T04:33:32.164Z,9.80
2019-02-05T04:37:02.151Z,9.47
2019-02-05T04:40:15.785Z,9.90
2019-02-05T04:43:33.110Z,7.33
2019-02-05T04:46:42.088Z,9.33
2019-02-05T04:50:17.160Z,8.80
2019-02-05T04:53:59.101Z,9.03
2019-02-05T04:57:38.204Z,8.63
2019-02-05T05:01:18.063Z,8.13
2019-02-05T05:05:13.258Z,10.60
2019-02-05T05:08:16.586Z,11.37
2019-02-05T05:10:49.961Z,9.27
2019-02-05T05:13:37.608Z,10.37
2019-02-05T05:16:09.481Z,11.67
2019-02-05T05:18:44.048Z,9.57
2019-02-05T05:21:42.586Z,11.13
2019-02-05T05:24:20.180Z,14.00
2019-02-05T05:26:58.564Z,8.57
2019-02-05T05:29:33.139Z,10.50
2019-02-05T05:32:04.126Z,8.60
2019-02-05T05:34:43.624Z,11.20
2019-02-05T05:37:14.470Z,8.67
2019-02-05T05:39:52.278Z,6.30
2019-02-05T05:42:27.687Z,11.97
2019-02-05T05:45:03.593Z,8.93
2019-02-05T05:47:36.711Z,7.40
2019-02-05T05:50:21.183Z,9.23
2019-02-05T05:52:58.933Z,7.60
2019-02-05T05:55:32.821Z,11.27
2019-02-05T05:58:21.942Z,10.63
2019-02-05T06:00:44.077Z,10.43
2019-02-05T06:08:32.002Z,12.27
2019-02-05T06:11:06.144Z,12.77
2019-02-05T06:13:39.559Z,11.83
2019-02-05T06:16:17.543Z,23.00
2019-02-05T06:18:56.980Z,15.10
2019-02-05T06:21:28.693Z,11.17
2019-02-05T06:24:02.983Z,13.00
2019-02-05T06:26:41.464Z,10.77
2019-02-05T06:29:13.374Z,10.07
2019-02-05T06:31:45.138Z,10.23
2019-02-05T06:34:17.035Z,10.83
2019-02-05T06:36:49.246Z,14.67
2019-02-05T06:39:20.965Z,18.13
2019-02-05T06:41:53.425Z,21.43
2019-02-05T06:44:25.527Z,21.63
2019-02-05T06:46:57.167Z,17.17
2019-02-05T06:49:29.369Z,15.53
2019-02-05T06:52:01.075Z,12.50
2019-02-05T06:54:32.886Z,11.20
2019-02-05T06:57:05.501Z,11.37
2019-02-05T06:59:37.638Z,12.27
2019-02-05T07:02:10.873Z,10.33
2019-02-05T07:04:42.634Z,13.67
2019-02-05T07:07:14.336Z,11.90
2019-02-05T07:09:46.249Z,13.37
2019-02-05T07:12:18.305Z,11.80
2019-02-05T07:14:50.351Z,17.43
2019-02-05T07:17:21.971Z,12.23
2019-02-05T07:19:53.886Z,16.50
2019-02-05T07:22:25.729Z,14.10
2019-02-05T07:24:57.383Z,12.80
2019-02-05T07:27:29.370Z,13.20
2019-02-05T07:30:01.178Z,14.60
2019-02-05T07:32:32.803Z,15.10
2019-02-05T07:35:05.385Z,14.13
2019-02-05T07:37:36.983Z,14.67
2019-02-05T07:40:12.839Z,14.60
2019-02-05T07:42:45.488Z,11.10
2019-02-05T07:45:19.444Z,13.67
2019-02-05T07:47:51.351Z,18.50
2019-02-05T07:50:25.512Z,12.10
2019-02-05T07:52:57.279Z,12.53
2019-02-05T07:55:29.589Z,11.57
2019-02-05T07:58:01.927Z,11.90
2019-02-05T08:00:33.976Z,12.07
2019-02-05T08:03:06.097Z,11.40
2019-02-05T08:05:38.024Z,10.27
2019-02-05T08:08:10.263Z,15.37
2019-02-05T08:10:43.374Z,17.20
2019-02-05T08:13:14.991Z,13.77
2019-02-05T08:15:46.754Z,11.07
2019-02-05T08:18:18.542Z,13.17
2019-02-05T08:20:50.120Z,14.97
2019-02-05T08:23:22.215Z,14.40
2019-02-05T08:25:53.821Z,19.20
2019-02-05T08:28:25.530Z,15.40
2019-02-05T08:30:57.142Z,14.93
2019-02-05T08:33:29.814Z,16.53
2019-02-05T08:36:02.255Z,22.57
2019-02-05T08:38:34.353Z,19.03
2019-02-05T08:41:06.705Z,15.63
2019-02-05T08:43:39.918Z,19.33
2019-02-05T08:46:11.581Z,18.10
2019-02-05T08:48:43.253Z,17.83
2019-02-05T08:51:16.627Z,17.70
2019-02-05T08:53:48.473Z,18.73
2019-02-05T08:56:20.090Z,21.00
2019-02-05T08:58:51.749Z,15.27
2019-02-05T09:01:23.502Z,16.87
2019-02-05T09:03:55.091Z,16.93
2019-02-05T09:06:26.750Z,26.10
2019-02-05T09:08:58.438Z,16.87
2019-02-05T09:11:30.397Z,18.90
2019-02-05T09:14:10.726Z,20.07
2019-02-05T09:16:36.910Z,17.77
2019-02-05T09:19:09.642Z,21.27
2019-02-05T09:21:41.276Z,17.77
2019-02-05T09:24:13.058Z,20.60
2019-02-05T09:26:45.064Z,20.13
2019-02-05T09:29:17.378Z,20.60
2019-02-05T09:31:49.229Z,20.00
2019-02-05T09:34:20.911Z,21.17
2019-02-05T09:36:52.584Z,19.63
2019-02-05T09:39:24.338Z,20.87
2019-02-05T09:41:56.917Z,16.67
2019-02-05T09:44:31.602Z,22.03
2019-02-05T09:47:03.355Z,18.83
2019-02-05T09:49:36.643Z,23.70
2019-02-05T09:52:08.333Z,19.60
2019-02-05T09:54:39.982Z,19.90
2019-02-05T09:57:13.379Z,21.17
2019-02-05T09:59:45.746Z,23.07
2019-02-05T10:02:17.575Z,25.50
2019-02-05T10:04:49.391Z,23.27
2019-02-05T10:07:21.355Z,24.70
2019-02-05T10:09:53.484Z,22.33
2019-02-05T10:12:26.890Z,22.27
2019-02-05T10:14:58.685Z,24.63
2019-02-05T10:17:30.448Z,23.40
2019-02-05T10:20:02.099Z,23.00
2019-02-05T10:22:33.886Z,20.90
2019-02-05T10:25:07.314Z,21.90
2019-02-05T10:27:39.572Z,19.20
2019-02-05T10:30:17.897Z,20.30
2019-02-05T10:32:49.491Z,17.00
2019-02-05T10:35:22.735Z,18.83
2019-02-05T10:37:54.859Z,20.33
2019-02-05T10:40:26.956Z,19.50
2019-02-05T10:48:04.243Z,19.93
2019-02-05T10:50:36.137Z,17.87
2019-02-05T10:53:07.850Z,20.23
2019-02-05T10:55:39.640Z,19.73
2019-02-05T10:58:12.049Z,16.60
2019-02-05T11:00:43.659Z,18.80
2019-02-05T11:03:15.262Z,19.90
2019-02-05T11:05:46.989Z,18.83
2019-02-05T11:08:18.726Z,18.53
2019-02-05T11:10:50.363Z,17.03
2019-02-05T11:13:22.240Z,17.17
2019-02-05T11:15:54.111Z,16.50
2019-02-05T11:18:25.913Z,17.57
2019-02-05T11:20:57.578Z,16.50
2019-02-05T11:23:29.329Z,15.87
2019-02-05T11:26:00.982Z,17.10
2019-02-05T11:28:33.085Z,15.93
2019-02-05T11:31:05.310Z,22.53
2019-02-05T11:33:36.956Z,18.27
2019-02-05T11:36:08.736Z,18.50
2019-02-05T11:38:40.367Z,17.60
2019-02-05T11:41:13.761Z,21.17
2019-02-05T11:43:47.526Z,21.20
2019-02-05T11:46:19.346Z,18.50
2019-02-05T11:48:51.101Z,17.83
2019-02-05T11:51:22.753Z,19.30
2019-02-05T11:53:54.401Z,24.17
2019-02-05T11:56:26.555Z,14.20
2019-02-05T11:59:08.624Z,18.00
2019-02-05T12:01:41.969Z,15.60
2019-02-05T12:04:15.200Z,13.33
2019-02-05T12:06:48.618Z,15.57
2019-02-05T12:09:33.167Z,14.00
2019-02-05T12:12:04.779Z,15.17
2019-02-05T12:14:38.007Z,13.03
2019-02-05T12:17:10.187Z,12.17
2019-02-05T12:19:42.070Z,15.63
2019-02-05T12:22:13.747Z,13.87
2019-02-05T12:24:45.340Z,15.07
2019-02-05T12:27:16.976Z,13.43
2019-02-05T12:29:48.602Z,13.47
2019-02-05T12:32:20.989Z,14.47
2019-02-05T12:34:52.631Z,13.40
2019-02-05T12:37:24.255Z,12.20
2019-02-05T12:39:55.971Z,14.07
2019-02-05T12:42:28.081Z,11.30
2019-02-05T12:45:00.338Z,13.93
2019-02-05T12:47:32.189Z,11.20
2019-02-05T12:50:03.892Z,11.40
2019-02-05T12:52:35.553Z,10.27
2019-02-05T12:55:13.272Z,9.97
2019-02-05T12:57:41.438Z,10.83
2019-02-05T13:00:56.836Z,9.10
2019-02-05T13:03:20.508Z,11.17
2019-02-05T13:05:52.309Z,13.87
2019-02-05T13:08:24.111Z,11.47
2019-02-05T13:10:55.741Z,11.93
2019-02-05T13:13:27.537Z,12.77
2019-02-05T13:15:59.166Z,14.37
2019-02-05T13:18:31.099Z,14.47
2019-02-05T13:21:02.717Z,13.00
2019-02-05T13:23:34.633Z,11.97
2019-02-05T13:26:07.533Z,13.83
2019-02-05T13:28:39.448Z,15.87
2019-02-05T13:31:11.314Z,21.03
2019-02-05T13:33:43.165Z,13.47
2019-02-05T13:36:17.624Z,13.50
2019-02-05T13:38:49.340Z,14.53
2019-02-05T13:42:02.920Z,13.77
2019-02-05T13:45:48.550Z,14.80
2019-02-05T13:48:25.560Z,11.80
2019-02-05T13:50:57.633Z,12.27
2019-02-05T13:53:29.492Z,15.53
2019-02-05T13:56:01.134Z,14.30
2019-02-05T13:58:34.047Z,14.00
2019-02-05T14:01:06.153Z,10.60
2019-02-05T14:03:38.392Z,13.97
2019-02-05T14:06:10.369Z,14.65
2019-02-05T14:08:41.976Z,11.97
2019-02-05T14:11:13.884Z,14.13
2019-02-05T14:13:45.525Z,12.20
2019-02-05T14:16:17.494Z,9.60
2019-02-05T14:18:55.339Z,9.67
2019-02-05T14:21:23.023Z,8.17
2019-02-05T14:24:05.892Z,9.30
2019-02-05T14:26:39.598Z,9.00
2019-02-05T14:29:16.582Z,9.73
2019-02-05T14:31:49.727Z,10.57
2019-02-05T14:34:23.108Z,10.83
2019-02-05T14:36:56.053Z,8.83
2019-02-05T14:39:27.691Z,9.60
2019-02-05T14:42:00.040Z,11.90
2019-02-05T14:44:31.943Z,13.73
2019-02-05T14:47:03.577Z,10.97
2019-02-05T14:49:35.373Z,9.23
2019-02-05T14:52:07.202Z,8.20
2019-02-05T14:54:38.940Z,6.90
2019-02-05T14:57:10.746Z,7.13
2019-02-05T14:59:42.473Z,8.37
2019-02-05T15:02:14.240Z,9.33
2019-02-05T15:04:46.197Z,10.47
2019-02-05T15:07:18.487Z,6.83
2019-02-05T15:09:50.540Z,8.60
2019-02-05T15:12:22.295Z,9.90
2019-02-05T15:14:53.953Z,7.10
2019-02-05T15:17:25.769Z,12.27
2019-02-05T15:19:57.515Z,9.77
2019-02-05T15:22:29.462Z,7.33
2019-02-05T15:25:01.560Z,8.47
2019-02-05T15:27:33.204Z,11.00
2019-02-05T15:30:07.942Z,9.57
2019-02-05T15:32:46.827Z,9.17
2019-02-05T15:35:18.543Z,9.70
2019-02-05T15:37:50.195Z,8.50
2019-02-05T15:40:22.359Z,8.63
2019-02-05T15:42:54.940Z,9.27
2019-02-05T15:45:28.316Z,7.93
2019-02-05T15:48:00.023Z,6.93
2019-02-05T15:50:32.129Z,8.87
2019-02-05T15:53:04.096Z,8.07
2019-02-05T15:55:36.162Z,7.50
2019-02-05T15:58:10.001Z,7.00
2019-02-05T16:00:41.704Z,8.70
2019-02-05T16:03:13.620Z,8.10
2019-02-05T16:05:45.397Z,8.50
2019-02-05T16:08:17.106Z,8.13
2019-02-05T16:10:49.189Z,14.67
2019-02-05T16:13:20.998Z,6.50
2019-02-05T16:15:52.748Z,6.90
2019-02-05T16:18:24.820Z,11.73
2019-02-05T16:20:57.721Z,8.40
2019-02-05T16:23:29.663Z,11.67
2019-02-05T16:26:01.603Z,9.27
2019-02-05T16:28:33.270Z,15.50
2019-02-05T16:31:05.092Z,10.43
2019-02-05T16:33:36.721Z,7.83
2019-02-05T16:36:08.485Z,7.87
2019-02-05T16:38:40.428Z,8.60
2019-02-05T16:41:12.273Z,8.23
2019-02-05T16:43:44.500Z,7.87
2019-02-05T16:46:16.314Z,6.57
2019-02-05T16:48:48.143Z,6.33
2019-02-05T16:51:19.782Z,6.43
2019-02-05T16:53:51.462Z,4.93
2019-02-05T16:56:23.230Z,6.20
2019-02-05T16:58:54.931Z,7.60
2019-02-05T17:01:26.794Z,9.93
2019-02-05T17:03:58.458Z,5.60
2019-02-05T17:06:30.166Z,7.67
2019-02-05T17:09:01.831Z,9.80
2019-02-05T17:11:33.520Z,7.07
2019-02-05T17:14:10.843Z,10.40
2019-02-05T17:16:46.635Z,8.23
2019-02-05T17:19:26.922Z,8.93
2019-02-05T17:21:55.093Z,8.77
2019-02-05T17:24:28.226Z,10.00
2019-02-05T17:27:04.617Z,10.90
2019-02-05T17:29:36.367Z,8.47
2019-02-05T17:32:08.308Z,9.33
2019-02-05T17:34:40.404Z,9.40
2019-02-05T17:37:12.429Z,12.10
2019-02-05T17:39:44.136Z,10.10
2019-02-05T17:42:15.968Z,12.40
2019-02-05T17:44:47.627Z,9.70
2019-02-05T17:47:19.961Z,10.83
2019-02-05T17:49:51.784Z,9.37
2019-02-05T17:52:26.917Z,12.73
2019-02-05T17:54:57.060Z,8.43
2019-02-05T17:57:31.693Z,7.40
2019-02-05T18:00:05.861Z,9.87
2019-02-05T18:02:37.640Z,10.70
2019-02-05T18:05:12.428Z,10.38
2019-02-05T18:07:44.255Z,11.20
2019-02-05T18:10:18.907Z,11.67
2019-02-05T18:12:50.707Z,10.93
2019-02-05T18:15:36.174Z,16.07
2019-02-05T18:18:27.002Z,22.30
2019-02-05T18:20:59.062Z,35.97
2019-02-05T18:23:30.794Z,40.23
2019-02-05T18:26:02.518Z,38.37
2019-02-05T18:28:34.431Z,24.17
2019-02-05T18:31:06.257Z,23.03
2019-02-05T18:33:40.232Z,24.43
2019-02-05T18:36:22.278Z,31.13
2019-02-05T18:38:56.327Z,18.03
2019-02-05T18:41:29.300Z,14.30
2019-02-05T18:44:03.042Z,14.20
2019-02-05T18:46:34.819Z,12.40
2019-02-05T18:49:08.212Z,9.93
2019-02-05T18:51:40.599Z,13.87
2019-02-05T18:54:12.493Z,11.77
2019-02-05T18:56:45.934Z,10.60
2019-02-05T18:59:17.943Z,10.00
2019-02-05T19:01:50.380Z,12.40
2019-02-05T19:04:22.434Z,13.17
2019-02-05T19:06:54.408Z,13.20
2019-02-05T19:09:26.971Z,13.50
2019-02-05T19:12:02.629Z,11.00
2019-02-05T19:14:32.092Z,9.97
2019-02-05T19:17:03.878Z,9.40
2019-02-05T19:19:35.700Z,12.80
2019-02-05T19:22:07.669Z,9.20
2019-02-05T19:25:05.007Z,11.07
2019-02-05T19:27:36.771Z,11.13
2019-02-05T19:30:10.594Z,10.67
2019-02-05T19:32:42.487Z,9.80
2019-02-05T19:35:14.454Z,7.60
2019-02-05T19:37:46.264Z,10.20
2019-02-05T19:40:18.707Z,7.97
2019-02-05T19:42:51.244Z,10.57
2019-02-05T19:45:33.826Z,7.90
2019-02-05T19:48:06.806Z,9.93
2019-02-05T19:50:38.822Z,8.87
2019-02-05T19:53:10.558Z,9.43
2019-02-05T19:55:44.669Z,13.30
2019-02-05T19:58:16.448Z,10.60
2019-02-05T20:00:48.358Z,6.40
2019-02-05T20:03:20.439Z,9.40
2019-02-05T20:05:52.403Z,5.87
2019-02-05T20:08:26.793Z,7.30
2019-02-05T20:10:58.249Z,7.73
2019-02-05T20:13:40.017Z,6.50
2019-02-05T20:16:03.976Z,7.40
2019-02-05T20:18:35.881Z,9.50
2019-02-05T20:21:07.591Z,8.73
2019-02-05T20:23:39.301Z,11.33
2019-02-05T20:26:11.737Z,8.80
2019-02-05T20:28:43.674Z,10.37
2019-02-05T20:31:15.535Z,11.00
2019-02-05T20:33:49.916Z,12.60
2019-02-05T20:36:20.690Z,11.27
2019-02-05T20:38:52.477Z,13.73
2019-02-05T20:41:25.177Z,13.53
2019-02-05T20:43:57.791Z,12.07
2019-02-05T20:46:29.533Z,12.37
2019-02-05T20:49:01.396Z,19.50
2019-02-05T20:51:33.134Z,15.83
2019-02-05T20:54:06.301Z,11.23
2019-02-05T20:56:38.794Z,11.50
2019-02-05T20:59:12.709Z,14.67
2019-02-05T21:01:44.697Z,26.43
2019-02-05T21:04:16.504Z,26.57
2019-02-05T21:06:48.298Z,17.70
2019-02-05T21:09:22.081Z,23.17
2019-02-05T21:11:53.839Z,18.80
2019-02-05T21:14:26.801Z,20.67
2019-02-05T21:16:58.603Z,23.97
2019-02-05T21:19:30.520Z,20.60
2019-02-05T21:22:02.323Z,23.60
2019-02-05T21:24:34.100Z,25.70
2019-02-05T21:27:05.828Z,28.07
2019-02-05T21:29:38.285Z,19.37
2019-02-05T21:32:09.970Z,16.87
2019-02-05T21:34:41.714Z,18.37
2019-02-05T21:37:13.496Z,11.33
2019-02-05T21:39:45.286Z,9.90
2019-02-05T21:42:17.749Z,16.13
2019-02-05T21:44:50.196Z,15.43
2019-02-05T21:47:22.163Z,12.93
2019-02-05T21:49:53.765Z,13.90
2019-02-05T21:52:25.480Z,14.37
2019-02-05T21:54:57.214Z,15.87
2019-02-05T21:57:29.072Z,14.80
2019-02-05T22:00:01.929Z,17.43
2019-02-05T22:02:33.702Z,19.83
2019-02-05T22:05:06.969Z,17.90
2019-02-05T22:07:38.720Z,13.97
2019-02-05T22:10:10.960Z,14.67
2019-02-05T22:12:43.052Z,15.37
2019-02-05T22:15:16.197Z,15.90
2019-02-05T22:17:48.158Z,16.80
2019-02-05T22:20:22.732Z,14.70
2019-02-05T22:22:59.950Z,19.90
2019-02-05T22:25:28.797Z,22.70
2019-02-05T22:28:00.616Z,18.17
2019-02-05T22:30:34.223Z,18.70
2019-02-05T22:33:07.817Z,21.03
2019-02-05T22:35:39.471Z,18.90
2019-02-05T22:38:11.210Z,20.57
2019-02-05T22:40:42.888Z,17.13
2019-02-05T22:43:15.230Z,17.80
2019-02-05T22:45:46.882Z,25.83
2019-02-05T22:48:19.029Z,19.77
2019-02-05T22:50:52.231Z,20.20
2019-02-05T22:53:23.969Z,20.53
2019-02-05T22:55:55.632Z,19.00
2019-02-05T22:58:27.596Z,18.57
2019-02-05T23:01:59.228Z,20.53
2019-02-05T23:05:13.059Z,24.67
2019-02-05T23:07:45.486Z,25.43
2019-02-05T23:11:03.229Z,21.97
2019-02-05T23:13:28.001Z,24.23
2019-02-05T23:15:59.914Z,24.80
2019-02-05T23:18:31.931Z,18.30
2019-02-05T23:21:03.631Z,20.83
2019-02-05T23:23:35.708Z,20.77
2019-02-05T23:26:07.521Z,20.27
2019-02-05T23:28:39.346Z,18.00
2019-02-05T23:31:11.022Z,22.73
2019-02-05T23:33:44.737Z,20.47
2019-02-05T23:36:15.971Z,21.37
2019-02-05T23:38:48.001Z,21.43
2019-02-05T23:41:19.639Z,21.73
2019-02-05T23:43:52.128Z,19.53
2019-02-05T23:46:23.784Z,21.17
2019-02-05T23:48:55.640Z,20.93
2019-02-05T23:51:27.274Z,20.17
2019-02-05T23:53:59.583Z,20.87
2019-02-05T23:56:31.216Z,23.33
2019-02-05T23:59:03.032Z,37.47
